Time;durP1;ratioP1;P1;durP2;ratioP2;P2;SDS_P1;SDS_P2;PMS_P1;PMS_P2;Temp;Humidity;BMP_temperature;BMP_pressure;BME280_temperature;BME280_humidity;BME280_pressure;Samples;Min_cycle;Max_cycle;Signal;HPM_P1;HPM_P2
2021/12/15 00:01:33;;;;;;;18.57;13.17;;;;;;;3.03;100.00;99379.91;4963405;28;20209;-72
2021/12/15 00:04:05;;;;;;;15.83;12.40;;;;;;;3.07;100.00;99379.75;4995631;28;20355;-73
2021/12/15 00:06:34;;;;;;;19.57;12.07;;;;;;;3.07;100.00;99377.94;4982891;28;20717;-73
2021/12/15 00:09:07;;;;;;;15.07;11.73;;;;;;;3.12;100.00;99380.34;4994892;28;20236;-73
2021/12/15 00:11:37;;;;;;;15.23;12.30;;;;;;;3.12;100.00;99369.88;4983012;28;20825;-74
2021/12/15 00:14:06;;;;;;;17.47;12.90;;;;;;;3.08;100.00;99376.19;4991885;28;20236;-75
2021/12/15 00:16:34;;;;;;;16.73;11.83;;;;;;;3.11;100.00;99371.63;4963989;28;21593;-73
2021/12/15 00:19:04;;;;;;;17.33;12.30;;;;;;;3.08;100.00;99368.34;4995921;28;20274;-73
2021/12/15 00:21:32;;;;;;;17.27;13.00;;;;;;;3.07;100.00;99364.03;4982321;28;20208;-74
2021/12/15 00:24:01;;;;;;;19.60;13.40;;;;;;;3.08;100.00;99363.09;4996097;28;20235;-73
2021/12/15 00:26:31;;;;;;;16.90;12.50;;;;;;;3.09;100.00;99354.31;4983633;28;20221;-76
2021/12/15 00:29:01;;;;;;;19.07;12.23;;;;;;;3.22;100.00;99364.94;4996710;28;20208;-74
2021/12/15 00:31:32;;;;;;;17.30;13.50;;;;;;;3.07;100.00;99367.47;4965902;28;20201;-77
2021/12/15 00:34:00;;;;;;;17.00;13.03;;;;;;;3.13;100.00;99363.69;4993228;28;20229;-74
2021/12/15 00:36:29;;;;;;;16.40;12.63;;;;;;;3.09;100.00;99359.56;4984658;28;20662;-75
2021/12/15 00:38:57;;;;;;;18.67;12.53;;;;;;;3.07;100.00;99364.84;4995439;28;20224;-72
2021/12/15 00:41:28;;;;;;;16.60;12.53;;;;;;;3.05;100.00;99364.09;4980079;28;20488;-74
2021/12/15 00:44:02;;;;;;;17.90;12.53;;;;;;;3.04;100.00;99358.03;4994530;28;20383;-75
2021/12/15 00:46:30;;;;;;;16.30;12.30;;;;;;;3.00;100.00;99359.09;4964409;28;20240;-76
2021/12/15 00:48:59;;;;;;;18.47;12.00;;;;;;;3.03;100.00;99360.72;4992782;28;20216;-75
2021/12/15 00:51:29;;;;;;;18.70;12.53;;;;;;;3.02;100.00;99361.66;4993865;28;20205;-74
2021/12/15 00:53:57;;;;;;;18.37;14.60;;;;;;;3.04;100.00;99363.25;4986008;28;20248;-77
2021/12/15 00:56:25;;;;;;;20.10;14.17;;;;;;;3.05;100.00;99353.63;4984114;28;20236;-75
2021/12/15 00:58:53;;;;;;;21.13;12.30;;;;;;;3.00;100.00;99353.03;4995090;28;20224;-74
2021/12/15 01:01:23;;;;;;;17.43;11.83;;;;;;;3.03;100.00;99363.34;4994191;28;20205;-75
2021/12/15 01:03:51;;;;;;;23.80;14.83;;;;;;;3.02;100.00;99359.03;4963894;28;20228;-76
2021/12/15 01:06:23;;;;;;;18.20;13.33;;;;;;;3.03;100.00;99365.97;4993503;28;20213;-75
2021/12/15 01:08:56;;;;;;;23.20;12.73;;;;;;;3.07;100.00;99357.00;4984802;28;20248;-74
2021/12/15 01:11:43;;;;;;;18.63;13.80;;;;;;;3.07;100.00;99361.41;4983695;28;20704;-75
2021/12/15 01:19:46;;;;;;;21.80;13.83;;;;;;;3.02;100.00;99356.41;4994742;28;20872;-72
2021/12/15 01:20:17;;;;;;;22.90;15.07;;;;;;;3.12;100.00;99360.22;4962732;28;20248;-74
2021/12/15 01:22:48;;;;;;;21.53;13.37;;;;;;;3.12;100.00;99357.59;4993118;28;20201;-73
2021/12/15 01:25:21;;;;;;;20.17;12.70;;;;;;;3.12;100.00;99354.97;4983430;28;20279;-76
2021/12/15 01:27:51;;;;;;;21.43;14.00;;;;;;;3.14;100.00;99350.50;4984073;28;20213;-74
2021/12/15 01:30:24;;;;;;;20.60;13.00;;;;;;;3.15;100.00;99354.81;4994381;28;20232;-76
2021/12/15 01:32:53;;;;;;;19.13;12.80;;;;;;;3.11;100.00;99363.75;4994265;28;20342;-75
2021/12/15 01:35:22;;;;;;;18.33;12.90;;;;;;;3.06;100.00;99352.69;4964207;28;20236;-76
2021/12/15 01:37:50;;;;;;;20.20;13.87;;;;;;;3.07;100.00;99366.66;4990414;28;20229;-75
2021/12/15 01:40:32;;;;;;;22.83;13.57;;;;;;;3.06;100.00;99363.16;4979409;28;20217;-77
2021/12/15 01:43:02;;;;;;;20.27;13.90;;;;;;;3.09;100.00;99370.84;4981882;28;20212;-75
2021/12/15 01:48:16;;;;;;;22.53;13.13;;;;;;;3.10;100.00;99366.47;4994318;28;20274;-75
2021/12/15 01:50:50;;;;;;;18.53;12.07;;;;;;;3.10;100.00;99374.34;4962411;28;20213;-74
2021/12/15 01:53:19;;;;;;;18.73;13.23;;;;;;;3.07;100.00;99367.47;4990497;28;20236;-75
2021/12/15 01:55:50;;;;;;;20.80;12.43;;;;;;;3.07;100.00;99370.09;4982221;28;20213;-73
2021/12/15 01:58:18;;;;;;;20.27;14.13;;;;;;;3.10;100.00;99379.56;4992636;28;20485;-74
2021/12/15 02:00:49;;;;;;;16.37;12.43;;;;;;;3.12;100.00;99370.69;4987231;28;20604;-74
2021/12/15 02:03:18;;;;;;;18.77;12.30;;;;;;;3.09;100.00;99370.03;4994366;28;20295;-76
2021/12/15 02:05:46;;;;;;;20.40;12.80;;;;;;;3.10;100.00;99376.97;4963255;28;20946;-74
2021/12/15 02:08:15;;;;;;;18.10;11.33;;;;;;;3.08;100.00;99381.44;4990750;28;20488;-75
2021/12/15 02:11:04;;;;;;;19.07;12.20;;;;;;;3.07;100.00;99383.19;4981645;28;20220;-74
2021/12/15 02:13:33;;;;;;;20.13;14.43;;;;;;;3.07;100.00;99384.97;4977947;28;20220;-72
2021/12/15 02:16:03;;;;;;;22.57;12.93;;;;;;;3.10;100.00;99374.34;4990719;28;20849;-70
2021/12/15 02:18:32;;;;;;;21.77;13.43;;;;;;;3.11;100.00;99366.38;4988910;28;20324;-76
2021/12/15 02:21:06;;;;;;;23.40;14.33;;;;;;;3.13;100.00;99375.00;4993499;28;20648;-76
2021/12/15 02:23:45;;;;;;;19.20;12.23;;;;;;;3.11;100.00;99376.03;4957603;28;20232;-73
2021/12/15 02:26:16;;;;;;;19.80;12.83;;;;;;;3.14;100.00;99373.25;4986956;28;20208;-74
2021/12/15 02:28:47;;;;;;;16.83;12.67;;;;;;;3.15;100.00;99374.94;4984856;28;21011;-71
2021/12/15 02:31:22;;;;;;;18.00;12.37;;;;;;;3.16;100.00;99372.22;4983258;28;20232;-75
2021/12/15 02:34:05;;;;;;;16.93;11.80;;;;;;;3.17;100.00;99373.91;4993638;28;20216;-72
2021/12/15 02:39:28;;;;;;;17.17;11.00;;;;;;;3.10;100.00;99372.53;4957933;28;20231;-76
2021/12/15 02:41:56;;;;;;;15.30;11.90;;;;;;;3.09;100.00;99370.84;4980917;28;20204;-76
2021/12/15 02:44:25;;;;;;;17.20;12.67;;;;;;;3.11;100.00;99371.63;4987572;28;20749;-76
2021/12/15 02:46:56;;;;;;;15.83;11.40;;;;;;;3.22;100.00;99372.81;4992166;28;20200;-75
2021/12/15 02:49:29;;;;;;;17.13;11.43;;;;;;;3.16;100.00;99366.16;4992535;28;20217;-75
2021/12/15 02:52:02;;;;;;;16.37;11.83;;;;;;;3.15;100.00;99367.06;4989689;28;20211;-74
2021/12/15 02:54:30;;;;;;;18.80;11.27;;;;;;;3.21;100.00;99373.75;4957086;28;20235;-74
2021/12/15 02:57:05;;;;;;;22.30;13.13;;;;;;;3.18;100.00;99375.59;4979203;28;20220;-73
2021/12/15 02:59:46;;;;;;;16.50;12.63;;;;;;;3.12;100.00;99372.47;4978373;28;20399;-72
2021/12/15 03:02:32;;;;;;;16.77;12.37;;;;;;;3.13;100.00;99369.75;4992276;28;20737;-74
2021/12/15 03:05:07;;;;;;;18.07;12.93;;;;;;;3.13;100.00;99375.00;4991292;28;20225;-73
2021/12/15 03:07:39;;;;;;;14.87;11.27;;;;;;;3.17;100.00;99378.31;4974412;28;20215;-74
2021/12/15 03:15:41;;;;;;;19.17;11.97;;;;;;;3.16;100.00;99382.69;4985045;28;20213;-73
2021/12/15 03:18:11;;;;;;;21.30;12.80;;;;;;;3.17;100.00;99379.16;4992542;28;20621;-75
2021/12/15 03:20:45;;;;;;;19.03;12.90;;;;;;;3.19;100.00;99387.75;4995188;28;20224;-72
2021/12/15 03:23:20;;;;;;;21.03;12.37;;;;;;;3.24;100.00;99387.53;4993878;28;20456;-73
2021/12/15 03:25:51;;;;;;;16.50;12.67;;;;;;;3.24;100.00;99390.16;4967903;28;20247;-75
2021/12/15 03:34:13;;;;;;;19.57;11.90;;;;;;;3.24;100.00;99389.31;4996609;28;20720;-75
2021/12/15 03:37:08;;;;;;;15.67;11.40;;;;;;;3.27;100.00;99391.78;4976745;28;20673;-75
2021/12/15 03:39:43;;;;;;;17.83;12.63;;;;;;;3.23;100.00;99391.06;4983766;28;20237;-71
2021/12/15 03:42:13;;;;;;;19.33;13.40;;;;;;;3.23;100.00;99392.88;4963346;28;20216;-70
2021/12/15 03:44:43;;;;;;;19.13;12.47;;;;;;;3.30;100.00;99394.22;4980683;28;20240;-69
2021/12/15 03:47:14;;;;;;;19.80;12.70;;;;;;;3.29;100.00;99388.13;4984291;28;20205;-70
2021/12/15 03:49:43;;;;;;;17.53;12.57;;;;;;;3.35;100.00;99393.94;4993037;28;20200;-69
2021/12/15 03:52:14;;;;;;;17.43;12.23;;;;;;;3.39;100.00;99396.34;4995822;28;20238;-69
2021/12/15 03:54:44;;;;;;;18.43;12.63;;;;;;;3.38;100.00;99397.25;4991981;28;20225;-73
2021/12/15 03:57:13;;;;;;;21.40;13.57;;;;;;;3.33;100.00;99396.66;4967465;28;20247;-74
2021/12/15 03:59:43;;;;;;;16.33;11.73;;;;;;;3.36;100.00;99401.75;4982745;28;20232;-74
2021/12/15 04:02:13;;;;;;;16.97;10.83;;;;;;;3.33;100.00;99399.28;4975323;28;20883;-72
2021/12/15 04:04:42;;;;;;;20.53;11.50;;;;;;;3.31;100.00;99404.59;4993505;28;20217;-72
2021/12/15 04:07:13;;;;;;;15.23;11.47;;;;;;;3.34;100.00;99398.38;4978928;28;20213;-72
2021/12/15 04:09:45;;;;;;;22.03;11.13;;;;;;;3.29;100.00;99395.97;4993620;28;20213;-73
2021/12/15 04:12:14;;;;;;;16.70;11.57;;;;;;;3.32;100.00;99400.22;4964245;28;20468;-74
2021/12/15 04:14:53;;;;;;;15.53;11.57;;;;;;;3.37;100.00;99400.81;4982494;28;20863;-74
2021/12/15 04:17:30;;;;;;;16.90;12.37;;;;;;;3.31;100.00;99391.50;4979020;28;20616;-73
2021/12/15 04:20:06;;;;;;;19.20;12.47;;;;;;;3.36;100.00;99398.25;4994901;28;20590;-73
2021/12/15 04:22:34;;;;;;;20.33;12.03;;;;;;;3.34;100.00;99398.38;4995179;28;20845;-72
2021/12/15 04:25:07;;;;;;;19.17;13.47;;;;;;;3.38;100.00;99399.88;4979162;28;20722;-73
2021/12/15 04:27:38;;;;;;;16.47;10.80;;;;;;;3.37;100.00;99405.19;4964290;28;20224;-73
2021/12/15 04:30:09;;;;;;;14.73;11.30;;;;;;;3.30;100.00;99396.84;4976042;28;20213;-71
2021/12/15 04:32:41;;;;;;;15.60;11.07;;;;;;;3.30;100.00;99396.84;4992755;28;20300;-72
2021/12/15 04:35:10;;;;;;;12.10;10.90;;;;;;;3.26;100.00;99405.81;4996121;28;20225;-74
2021/12/15 04:37:40;;;;;;;14.30;10.97;;;;;;;3.26;100.00;99406.63;4994907;28;20221;-73
2021/12/15 04:40:14;;;;;;;14.97;10.33;;;;;;;3.29;100.00;99418.72;4983590;28;20231;-73
2021/12/15 04:42:43;;;;;;;15.57;10.50;;;;;;;3.30;100.00;99420.44;4962935;28;20224;-73
2021/12/15 04:45:13;;;;;;;18.10;12.03;;;;;;;3.28;100.00;99422.28;4993722;28;20225;-73
2021/12/15 04:47:45;;;;;;;14.97;10.73;;;;;;;3.25;100.00;99425.91;4982537;28;20213;-72
2021/12/15 04:50:13;;;;;;;16.10;11.10;;;;;;;3.24;100.00;99432.06;4996482;28;20209;-72
2021/12/15 04:52:41;;;;;;;18.53;12.03;;;;;;;3.24;100.00;99423.38;4994310;28;20236;-73
2021/12/15 04:55:12;;;;;;;15.43;10.67;;;;;;;3.26;100.00;99432.00;4994491;28;20307;-73
2021/12/15 04:57:40;;;;;;;17.70;11.87;;;;;;;3.27;100.00;99441.56;4962777;28;20217;-73
2021/12/15 05:00:13;;;;;;;16.87;11.30;;;;;;;3.24;100.00;99437.31;4993536;28;20229;-71
2021/12/15 05:02:41;;;;;;;17.07;12.60;;;;;;;3.27;100.00;99447.63;4981363;28;20469;-73
2021/12/15 05:05:14;;;;;;;19.33;12.90;;;;;;;3.23;100.00;99445.28;4989306;28;20318;-73
2021/12/15 05:07:42;;;;;;;17.47;11.73;;;;;;;3.21;100.00;99454.94;4978389;28;20217;-72
2021/12/15 05:10:12;;;;;;;16.20;11.70;;;;;;;3.24;100.00;99454.81;4993306;28;20562;-71
2021/12/15 05:12:41;;;;;;;16.23;11.00;;;;;;;3.26;100.00;99460.81;4975544;28;20208;-73
2021/12/15 05:15:10;;;;;;;15.00;11.30;;;;;;;3.25;100.00;99453.88;4977412;28;20255;-70
2021/12/15 05:17:38;;;;;;;17.43;12.33;;;;;;;3.23;100.00;99448.72;4983130;28;20697;-70
2021/12/15 05:20:09;;;;;;;15.87;11.63;;;;;;;3.27;100.00;99454.66;4992291;28;20827;-70
2021/12/15 05:22:38;;;;;;;15.53;11.07;;;;;;;3.26;100.00;99453.78;4993938;28;20323;-71
2021/12/15 05:25:08;;;;;;;13.57;10.13;;;;;;;3.28;100.00;99451.94;4994080;28;20614;-70
2021/12/15 05:27:38;;;;;;;15.67;10.70;;;;;;;3.26;100.00;99460.81;4977713;28;20723;-78
2021/12/15 05:30:10;;;;;;;16.87;10.93;;;;;;;3.24;100.00;99458.28;4965384;28;20224;-80
2021/12/15 05:32:41;;;;;;;14.93;10.63;;;;;;;3.27;100.00;99465.13;4984684;28;20223;-75
2021/12/15 05:35:15;;;;;;;15.07;9.77;;;;;;;3.29;100.00;99479.84;4983677;28;20673;-79
2021/12/15 05:37:44;;;;;;;12.93;10.53;;;;;;;3.28;100.00;99470.28;4988405;28;20510;-77
2021/12/15 05:40:15;;;;;;;16.70;11.73;;;;;;;3.29;100.00;99476.38;4993122;28;20295;-80
2021/12/15 05:42:45;;;;;;;16.90;10.87;;;;;;;3.29;100.00;99479.84;4991906;28;20839;-77
2021/12/15 05:45:13;;;;;;;16.93;11.93;;;;;;;3.28;100.00;99485.16;4953226;28;20233;-79
2021/12/15 05:47:42;;;;;;;16.97;11.97;;;;;;;3.28;100.00;99487.78;4984848;28;20361;-79
2021/12/15 05:50:13;;;;;;;20.40;12.40;;;;;;;3.26;100.00;99487.03;4984037;28;20609;-82
2021/12/15 05:52:41;;;;;;;15.47;11.77;;;;;;;3.35;100.00;99490.91;4996559;28;20209;-78
2021/12/15 05:55:11;;;;;;;17.57;11.33;;;;;;;3.35;100.00;99493.53;4992819;28;20611;-78
2021/12/15 05:57:39;;;;;;;12.97;10.17;;;;;;;3.37;100.00;99497.78;4991445;28;20697;-77
2021/12/15 06:00:12;;;;;;;14.90;11.57;;;;;;;3.36;100.00;99503.94;4958859;28;20244;-78
2021/12/15 06:02:41;;;;;;;18.07;11.70;;;;;;;3.38;100.00;99502.09;5011958;23;20277;-75
2021/12/15 06:05:10;;;;;;;13.43;10.30;;;;;;;3.31;100.00;99505.97;4996999;28;20224;-75
2021/12/15 06:07:41;;;;;;;17.43;10.63;;;;;;;3.36;100.00;99503.94;5003995;28;20212;-76
2021/12/15 06:10:14;;;;;;;15.10;10.07;;;;;;;3.42;100.00;99508.88;5008815;28;20195;-74
2021/12/15 06:12:47;;;;;;;16.67;10.93;;;;;;;3.38;100.00;99501.22;5008014;28;20713;-76
2021/12/15 06:15:21;;;;;;;17.20;10.73;;;;;;;3.39;100.00;99503.78;4970214;28;20570;-73
2021/12/15 06:17:49;;;;;;;15.87;10.87;;;;;;;3.33;100.00;99502.31;4992127;28;20550;-74
2021/12/15 06:20:17;;;;;;;14.30;10.77;;;;;;;3.30;100.00;99501.66;4983268;28;20225;-74
2021/12/15 06:22:47;;;;;;;15.37;11.20;;;;;;;3.35;100.00;99504.00;4997851;28;20343;-76
2021/12/15 06:25:15;;;;;;;12.67;9.57;;;;;;;3.30;100.00;99505.09;4994412;28;20219;-73
2021/12/15 06:27:48;;;;;;;14.27;10.83;;;;;;;3.38;100.00;99506.47;4997673;28;20275;-76
2021/12/15 06:30:17;;;;;;;15.33;10.67;;;;;;;3.33;100.00;99510.19;4993484;28;20454;-73
2021/12/15 06:32:46;;;;;;;14.17;10.80;;;;;;;3.33;100.00;99514.59;4966711;28;20240;-75
2021/12/15 06:35:16;;;;;;;16.47;11.37;;;;;;;3.32;100.00;99512.91;4992518;28;20212;-73
2021/12/15 06:37:44;;;;;;;18.57;12.70;;;;;;;3.32;100.00;99518.97;4977750;28;20205;-77
2021/12/15 06:40:15;;;;;;;15.80;11.13;;;;;;;3.30;100.00;99514.75;4993397;28;20235;-74
2021/12/15 06:42:44;;;;;;;14.30;11.10;;;;;;;3.35;100.00;99520.59;4991789;28;20225;-73
2021/12/15 06:45:17;;;;;;;15.13;11.63;;;;;;;3.33;100.00;99519.84;4998148;28;20208;-76
2021/12/15 06:58:58;;;;;;;15.67;10.83;;;;;;;3.36;100.00;99530.16;4996780;28;20322;-75
2021/12/15 07:01:26;;;;;;;15.07;11.30;;;;;;;3.42;100.00;99535.06;4986670;28;20613;-73
2021/12/15 07:03:56;;;;;;;18.20;12.30;;;;;;;3.45;100.00;99532.28;4984637;28;20315;-75
2021/12/15 07:06:24;;;;;;;16.67;12.17;;;;;;;3.43;100.00;99528.91;4999029;28;20205;-74
2021/12/15 07:08:53;;;;;;;15.57;11.63;;;;;;;3.42;100.00;99536.88;4982154;28;20205;-76
2021/12/15 07:11:22;;;;;;;14.40;10.57;;;;;;;3.42;100.00;99542.09;4998343;28;20201;-76
2021/12/15 07:13:50;;;;;;;16.57;11.73;;;;;;;3.42;100.00;99542.94;4997163;28;20988;-75
2021/12/15 07:16:23;;;;;;;15.30;10.87;;;;;;;3.39;100.00;99542.22;5001748;28;20239;-74
2021/12/15 07:19:04;;;;;;;14.70;12.53;;;;;;;3.41;100.00;99550.84;4975712;28;20334;-74
2021/12/15 07:21:41;;;;;;;18.43;11.90;;;;;;;3.47;100.00;99551.41;4989705;28;20689;-73
2021/12/15 07:24:09;;;;;;;14.30;10.97;;;;;;;3.44;100.00;99555.97;4997254;28;20228;-73
2021/12/15 07:26:38;;;;;;;15.17;11.93;;;;;;;3.49;100.00;99553.94;4993124;28;20231;-73
2021/12/15 07:29:08;;;;;;;16.77;11.23;;;;;;;3.44;100.00;99559.41;4999273;28;20217;-75
2021/12/15 07:31:37;;;;;;;16.33;12.40;;;;;;;3.46;100.00;99557.56;4972751;28;20693;-74
2021/12/15 07:34:06;;;;;;;15.90;11.67;;;;;;;3.46;100.00;99561.97;4994136;28;20239;-76
2021/12/15 07:36:34;;;;;;;17.50;12.20;;;;;;;3.44;100.00;99558.59;4976170;28;20205;-74
2021/12/15 07:39:04;;;;;;;18.80;13.37;;;;;;;3.46;100.00;99565.44;4993088;28;20225;-76
2021/12/15 07:41:40;;;;;;;16.57;13.07;;;;;;;3.48;100.00;99573.22;4996676;28;20232;-73
2021/12/15 07:44:09;;;;;;;16.57;11.47;;;;;;;3.45;100.00;99571.59;5000199;28;20236;-73
2021/12/15 07:46:53;;;;;;;16.77;11.17;;;;;;;3.51;100.00;99573.06;4997378;28;20236;-73
2021/12/15 07:50:16;;;;;;;17.33;11.57;;;;;;;3.47;100.00;99577.59;4969212;28;20216;-75
2021/12/15 07:52:44;;;;;;;17.27;10.87;;;;;;;3.45;100.00;99579.47;4950322;28;20930;-76
2021/12/15 07:55:17;;;;;;;15.33;11.80;;;;;;;3.52;100.00;99582.63;4996378;28;20213;-78
2021/12/15 07:57:45;;;;;;;16.53;11.30;;;;;;;3.53;100.00;99586.94;4995103;28;20292;-76
2021/12/15 08:00:15;;;;;;;14.90;11.80;;;;;;;3.57;100.00;99587.59;4997713;28;20208;-78
2021/12/15 08:02:43;;;;;;;15.27;12.10;;;;;;;3.55;100.00;99577.22;4962483;28;23325;-77
2021/12/15 08:05:11;;;;;;;18.17;11.73;;;;;;;3.53;100.00;99591.31;4996154;28;20209;-76
2021/12/15 08:07:42;;;;;;;14.07;12.37;;;;;;;3.54;100.00;99590.41;4994210;28;20204;-73
2021/12/15 08:10:12;;;;;;;16.80;12.90;;;;;;;3.56;100.00;99599.03;4983960;28;20209;-75
2021/12/15 08:12:43;;;;;;;15.73;12.03;;;;;;;3.63;100.00;99595.19;4996950;28;20221;-73
2021/12/15 08:15:11;;;;;;;24.20;13.17;;;;;;;3.68;100.00;99594.91;4999095;28;20209;-76
2021/12/15 08:17:43;;;;;;;18.07;11.77;;;;;;;3.73;100.00;99598.13;4959968;28;20205;-73
2021/12/15 08:20:13;;;;;;;16.00;10.87;;;;;;;3.72;100.00;99597.31;4994067;28;20237;-76
2021/12/15 08:22:44;;;;;;;17.07;11.77;;;;;;;3.66;100.00;99594.16;4995047;28;20447;-73
2021/12/15 08:25:14;;;;;;;16.30;11.77;;;;;;;3.76;100.00;99592.72;4988688;28;20681;-76
2021/12/15 08:27:48;;;;;;;16.53;12.07;;;;;;;3.70;100.00;99601.78;4994593;28;20224;-75
2021/12/15 08:30:30;;;;;;;14.63;11.13;;;;;;;3.74;100.00;99608.56;4996270;28;20423;-75
2021/12/15 08:33:04;;;;;;;14.17;10.20;;;;;;;3.69;100.00;99600.09;4964775;28;20367;-74
2021/12/15 08:35:34;;;;;;;14.47;10.80;;;;;;;3.74;100.00;99608.56;4988852;28;20220;-73
2021/12/15 08:38:02;;;;;;;17.93;10.90;;;;;;;3.84;100.00;99605.44;4997879;28;20219;-72
2021/12/15 08:40:31;;;;;;;13.40;10.57;;;;;;;3.86;100.00;99614.94;4988345;28;20212;-73
2021/12/15 08:43:03;;;;;;;14.67;10.57;;;;;;;3.90;100.00;99612.97;4990977;28;20225;-75
2021/12/15 08:45:32;;;;;;;16.67;11.77;;;;;;;3.90;100.00;99611.22;4994424;28;20208;-73
2021/12/15 08:48:01;;;;;;;13.37;9.80;;;;;;;3.82;100.00;99605.53;4967937;28;20220;-75
2021/12/15 08:50:33;;;;;;;14.53;10.30;;;;;;;3.97;100.00;99610.91;4994769;28;20666;-74
2021/12/15 08:53:04;;;;;;;14.07;10.10;;;;;;;4.08;100.00;99615.56;4994400;28;20736;-75
2021/12/15 08:55:36;;;;;;;13.30;10.90;;;;;;;4.23;100.00;99614.72;4989806;28;20204;-73
2021/12/15 08:58:09;;;;;;;17.23;11.20;;;;;;;4.30;100.00;99617.88;4995682;28;20208;-76
2021/12/15 09:00:39;;;;;;;14.23;10.63;;;;;;;4.47;100.00;99617.78;4985740;28;20692;-73
2021/12/15 09:03:07;;;;;;;15.43;10.97;;;;;;;4.30;100.00;99623.97;4964964;28;20327;-73
2021/12/15 09:05:36;;;;;;;16.40;11.10;;;;;;;4.66;100.00;99614.16;4993276;28;20201;-72
2021/12/15 09:08:07;;;;;;;15.90;11.33;;;;;;;4.60;100.00;99606.63;4995503;28;20212;-75
2021/12/15 09:10:37;;;;;;;18.47;11.53;;;;;;;4.66;100.00;99611.50;4984906;28;20211;-73
2021/12/15 09:13:06;;;;;;;17.47;10.67;;;;;;;4.77;100.00;99613.53;4997348;28;20228;-74
2021/12/15 09:15:35;;;;;;;17.10;12.80;;;;;;;4.93;100.00;99605.63;4994522;28;20213;-73
2021/12/15 09:18:09;;;;;;;18.33;12.70;;;;;;;5.13;100.00;99607.09;4993890;28;20220;-72
2021/12/15 09:20:41;;;;;;;21.47;12.87;;;;;;;5.33;100.00;99602.44;4962094;28;20229;-73
2021/12/15 09:23:13;;;;;;;19.20;12.43;;;;;;;5.06;100.00;99598.72;4994174;28;20228;-76
2021/12/15 09:25:44;;;;;;;21.67;12.27;;;;;;;5.06;100.00;99600.50;4981758;28;20216;-74
2021/12/15 09:28:14;;;;;;;21.23;14.00;;;;;;;5.16;100.00;99603.44;4995517;28;20213;-76
2021/12/15 09:30:46;;;;;;;28.67;15.40;;;;;;;5.22;100.00;99601.31;4991115;28;20212;-75
2021/12/15 09:33:16;;;;;;;27.13;15.20;;;;;;;5.18;100.00;99612.06;4996268;28;20221;-75
2021/12/15 09:35:45;;;;;;;22.37;13.43;;;;;;;5.02;100.00;99596.34;4958313;28;20761;-75
2021/12/15 09:38:13;;;;;;;24.90;15.10;;;;;;;5.22;100.00;99596.06;4995787;28;20576;-73
2021/12/15 09:40:41;;;;;;;24.17;15.27;;;;;;;5.29;100.00;99600.94;4988520;28;20329;-76
2021/12/15 09:43:14;;;;;;;25.97;14.73;;;;;;;5.29;100.00;99604.41;4984836;28;20228;-76
2021/12/15 09:45:50;;;;;;;24.33;14.87;;;;;;;5.38;100.00;99608.28;4993908;28;20490;-72
2021/12/15 10:02:41;;;;;;;30.90;16.07;;;;;;;5.68;100.00;99604.75;4968064;28;20228;-73
2021/12/15 10:05:25;;;;;;;27.87;15.10;;;;;;;5.71;100.00;99611.63;4964967;28;20220;-75
2021/12/15 10:10:48;;;;;;;30.23;17.03;;;;;;;5.76;100.00;99601.66;4984523;28;20252;-73
2021/12/15 10:19:18;;;;;;;28.30;16.90;;;;;;;5.62;100.00;99599.88;4997845;28;20204;-74
2021/12/15 10:22:08;;;;;;;28.43;16.90;;;;;;;5.52;100.00;99588.22;4959768;28;20237;-76
2021/12/15 10:24:45;;;;;;;27.87;15.80;;;;;;;5.60;100.00;99588.59;4988394;28;20201;-74
2021/12/15 10:27:17;;;;;;;27.53;15.10;;;;;;;5.48;100.00;99569.97;4994700;28;20211;-76
2021/12/15 10:30:06;;;;;;;24.20;14.47;;;;;;;5.57;100.00;99579.09;4977337;28;20751;-74
2021/12/15 10:32:41;;;;;;;26.47;15.27;;;;;;;5.67;100.00;99574.13;4991772;28;20352;-74
2021/12/15 10:35:13;;;;;;;28.37;14.87;;;;;;;5.63;100.00;99573.44;4965263;28;20267;-73
2021/12/15 10:37:43;;;;;;;27.70;14.63;;;;;;;5.69;100.00;99571.41;4990049;28;20208;-74
2021/12/15 10:40:18;;;;;;;24.87;15.33;;;;;;;5.79;100.00;99568.09;4986568;28;20204;-74
2021/12/15 10:42:47;;;;;;;25.50;13.57;;;;;;;5.70;100.00;99560.78;4979022;28;20228;-72
2021/12/15 10:45:20;;;;;;;23.50;14.63;;;;;;;5.74;100.00;99562.28;4985286;28;20208;-73
2021/12/15 10:47:52;;;;;;;23.33;13.73;;;;;;;5.74;100.00;99564.09;4992227;28;20205;-71
2021/12/15 10:50:23;;;;;;;24.60;13.50;;;;;;;5.80;100.00;99572.41;4993717;28;20212;-73
2021/12/15 10:52:55;;;;;;;23.83;13.43;;;;;;;5.70;100.00;99568.66;4970921;28;20233;-75
2021/12/15 10:55:32;;;;;;;20.53;13.30;;;;;;;5.74;100.00;99571.97;4994896;28;20231;-73
2021/12/15 10:58:35;;;;;;;22.43;12.50;;;;;;;5.85;100.00;99573.91;4979140;28;20216;-73
2021/12/15 11:01:08;;;;;;;24.27;13.50;;;;;;;5.93;100.00;99561.16;4991117;28;20691;-77
2021/12/15 11:03:45;;;;;;;22.33;12.57;;;;;;;5.89;100.00;99563.13;4996386;28;20689;-76
2021/12/15 11:06:22;;;;;;;22.63;13.03;;;;;;;5.96;100.00;99563.59;4996477;28;20217;-77
2021/12/15 11:09:10;;;;;;;19.63;13.23;;;;;;;5.95;100.00;99551.38;4968409;28;20544;-76
2021/12/15 11:11:56;;;;;;;18.37;12.00;;;;;;;6.04;100.00;99557.84;4990402;28;20820;-75
2021/12/15 11:14:26;;;;;;;20.60;13.07;;;;;;;6.02;100.00;99554.47;4983677;28;20523;-75
2021/12/15 11:17:07;;;;;;;20.03;12.13;;;;;;;6.11;100.00;99553.06;4988658;28;20205;-76
2021/12/15 11:19:44;;;;;;;18.00;12.37;;;;;;;6.19;100.00;99556.91;4989074;28;20201;-74
2021/12/15 11:22:48;;;;;;;21.97;13.27;;;;;;;6.03;100.00;99557.03;4963398;28;20224;-75
2021/12/15 11:25:32;;;;;;;16.53;13.00;;;;;;;6.04;100.00;99552.59;4922856;29;20222;-73
2021/12/15 11:28:03;;;;;;;18.37;12.40;;;;;;;6.07;100.00;99552.44;4926653;29;20203;-73
2021/12/15 11:30:35;;;;;;;20.33;12.77;;;;;;;6.05;100.00;99546.38;4952826;28;20240;-73
2021/12/15 11:33:06;;;;;;;14.07;11.23;;;;;;;6.01;100.00;99542.25;4999120;28;20232;-75
2021/12/15 11:35:41;;;;;;;15.97;11.97;;;;;;;5.95;100.00;99540.84;4994763;28;20209;-72
2021/12/15 11:38:14;;;;;;;18.93;13.13;;;;;;;6.00;100.00;99541.41;4968367;28;20216;-76
2021/12/15 11:40:48;;;;;;;15.60;11.47;;;;;;;6.11;100.00;99540.75;4993907;28;20227;-75
2021/12/15 11:43:47;;;;;;;19.83;11.80;;;;;;;6.05;100.00;99544.63;4995650;28;20230;-76
2021/12/15 11:46:33;;;;;;;18.60;11.90;;;;;;;6.05;100.00;99539.34;4940500;28;20468;-76
2021/12/15 11:49:06;;;;;;;16.27;11.23;;;;;;;6.08;100.00;99539.16;4995689;28;20308;-76
2021/12/15 11:51:42;;;;;;;21.67;11.13;;;;;;;6.17;100.00;99542.13;4990192;28;20658;-76
2021/12/15 11:54:19;;;;;;;13.83;11.07;;;;;;;6.02;100.00;99549.22;4970560;28;20232;-73
2021/12/15 11:56:48;;;;;;;15.87;11.30;;;;;;;6.03;100.00;99549.13;4995326;28;20712;-75
2021/12/15 11:59:23;;;;;;;19.87;13.70;;;;;;;5.98;100.00;99543.28;4998055;28;20589;-75
2021/12/15 12:01:56;;;;;;;15.93;10.30;;;;;;;6.11;100.00;99547.81;4985570;28;20535;-71
2021/12/15 12:04:28;;;;;;;17.80;11.40;;;;;;;6.01;100.00;99539.63;4995996;28;20232;-73
2021/12/15 12:07:11;;;;;;;16.27;11.63;;;;;;;5.91;100.00;99537.56;4995246;28;20414;-74
2021/12/15 12:09:42;;;;;;;18.07;12.30;;;;;;;5.90;100.00;99546.38;4961415;28;20213;-74
2021/12/15 12:12:12;;;;;;;15.90;11.70;;;;;;;5.89;100.00;99544.69;4996121;28;20209;-74
2021/12/15 12:14:48;;;;;;;18.97;12.17;;;;;;;6.01;100.00;99544.91;4992996;28;20621;-72
2021/12/15 12:17:19;;;;;;;15.70;11.63;;;;;;;6.11;100.00;99546.03;4984741;28;20212;-72
2021/12/15 12:19:51;;;;;;;15.73;11.90;;;;;;;5.96;100.00;99549.56;4994708;28;20204;-73
2021/12/15 12:22:22;;;;;;;18.77;11.83;;;;;;;5.91;100.00;99537.56;4997244;28;20213;-74
2021/12/15 12:24:54;;;;;;;14.93;11.40;;;;;;;5.80;100.00;99546.09;4967666;28;20492;-73
2021/12/15 12:27:24;;;;;;;16.77;11.17;;;;;;;5.71;100.00;99545.84;4996587;28;20216;-73
2021/12/15 12:29:58;;;;;;;16.80;12.37;;;;;;;5.62;100.00;99552.53;4995535;28;20446;-74
2021/12/15 12:32:26;;;;;;;15.87;11.03;;;;;;;5.76;100.00;99547.25;4984888;28;20209;-72
2021/12/15 12:34:55;;;;;;;17.30;12.00;;;;;;;5.69;100.00;99550.38;4995063;28;20208;-75